createdAt,value
2022-10-09T00:01:28.613Z,84.51
2022-10-09T00:03:56.900Z,84.61
2022-10-09T00:06:27.634Z,84.47
2022-10-09T00:08:54.693Z,84.82
2022-10-09T00:11:25.722Z,84.57
2022-10-09T00:13:54.386Z,84.39
2022-10-09T00:16:23.575Z,84.26
2022-10-09T00:18:51.272Z,84.64
2022-10-09T00:21:19.957Z,84.63
2022-10-09T00:23:47.570Z,84.53
2022-10-09T00:26:17.091Z,84.30
2022-10-09T00:28:44.753Z,84.30
2022-10-09T00:31:15.311Z,84.78
2022-10-09T00:33:43.000Z,85.90
2022-10-09T00:36:17.061Z,85.74
2022-10-09T00:38:44.259Z,85.66
2022-10-09T00:41:17.154Z,85.50
2022-10-09T00:43:52.140Z,85.46
2022-10-09T00:46:33.635Z,85.55
2022-10-09T00:49:11.678Z,85.91
2022-10-09T00:51:41.856Z,86.07
2022-10-09T00:54:12.759Z,85.88
2022-10-09T00:56:40.349Z,85.86
2022-10-09T00:59:12.242Z,85.92
2022-10-09T01:01:41.393Z,85.79
2022-10-09T01:04:08.706Z,85.96
2022-10-09T01:07:19.011Z,85.75
2022-10-09T01:10:12.890Z,85.38
2022-10-09T01:12:55.199Z,86.00
2022-10-09T01:15:35.855Z,86.06
2022-10-09T01:18:11.403Z,85.94
2022-10-09T01:21:00.645Z,86.26
2022-10-09T01:23:30.804Z,85.92
2022-10-09T01:26:16.669Z,85.71
2022-10-09T01:28:51.453Z,85.87
2022-10-09T01:31:20.934Z,85.74
2022-10-09T01:33:48.635Z,85.98
2022-10-09T01:36:17.030Z,86.44
2022-10-09T01:38:45.655Z,87.06
2022-10-09T01:41:12.813Z,87.01
2022-10-09T01:43:41.165Z,87.50
2022-10-09T01:46:32.320Z,86.61
2022-10-09T01:49:14.607Z,86.77
2022-10-09T01:51:57.285Z,86.72
2022-10-09T01:55:05.199Z,86.53
2022-10-09T01:57:55.457Z,86.62
2022-10-09T02:00:22.843Z,86.55
2022-10-09T02:02:53.413Z,86.40
2022-10-09T02:05:25.853Z,86.36
2022-10-09T02:07:55.177Z,86.48
2022-10-09T02:10:24.295Z,86.69
2022-10-09T02:12:55.305Z,86.33
2022-10-09T02:15:27.018Z,86.33
2022-10-09T02:17:59.297Z,86.39
2022-10-09T02:20:34.816Z,86.37
2022-10-09T02:23:06.066Z,86.45
2022-10-09T02:25:33.777Z,86.97
2022-10-09T02:28:01.751Z,86.51
2022-10-09T02:30:42.346Z,86.30
2022-10-09T02:33:09.623Z,86.23
2022-10-09T02:35:38.444Z,86.10
2022-10-09T02:38:05.378Z,86.37
2022-10-09T02:40:32.661Z,85.98
2022-10-09T02:42:59.616Z,85.88
2022-10-09T02:45:26.715Z,85.83
2022-10-09T02:47:54.152Z,85.67
2022-10-09T02:50:21.107Z,86.08
2022-10-09T02:52:48.337Z,86.10
2022-10-09T02:55:15.978Z,86.09
2022-10-09T02:57:43.432Z,86.31
2022-10-09T03:00:11.044Z,86.22
2022-10-09T03:02:38.366Z,86.16
2022-10-09T03:05:05.961Z,86.18
2022-10-09T03:07:32.923Z,85.95
2022-10-09T03:10:00.267Z,86.01
2022-10-09T03:12:27.324Z,86.11
2022-10-09T03:14:54.702Z,86.12
2022-10-09T03:17:22.056Z,86.36
2022-10-09T03:19:49.093Z,86.23
2022-10-09T03:22:17.190Z,86.41
2022-10-09T03:24:44.413Z,86.62
2022-10-09T03:27:12.623Z,86.39
2022-10-09T03:29:39.714Z,86.70
2022-10-09T03:32:07.051Z,86.98
2022-10-09T03:34:34.140Z,86.72
2022-10-09T03:37:04.113Z,86.80
2022-10-09T03:39:33.914Z,86.91
2022-10-09T03:42:00.915Z,86.89
2022-10-09T03:44:27.994Z,87.12
2022-10-09T03:46:55.380Z,87.17
2022-10-09T03:49:22.506Z,87.05
2022-10-09T03:51:49.480Z,87.38
2022-10-09T03:54:17.071Z,87.28
2022-10-09T03:56:46.579Z,87.88
2022-10-09T03:59:16.959Z,87.88
2022-10-09T04:01:44.536Z,87.45
2022-10-09T04:04:12.159Z,87.61
2022-10-09T04:06:39.131Z,87.89
2022-10-09T04:09:07.000Z,87.33
2022-10-09T04:11:34.097Z,87.38
2022-10-09T04:14:01.435Z,87.35
2022-10-09T04:16:28.772Z,87.04
2022-10-09T04:18:55.894Z,87.31
2022-10-09T04:21:22.900Z,87.05
2022-10-09T04:23:53.688Z,86.94
2022-10-09T04:26:20.721Z,87.07
2022-10-09T04:28:48.026Z,87.51
2022-10-09T04:31:15.425Z,87.59
2022-10-09T04:33:42.562Z,87.28
2022-10-09T04:36:09.685Z,86.99
2022-10-09T04:38:37.322Z,87.23
2022-10-09T04:41:06.973Z,87.34
2022-10-09T04:43:35.071Z,87.78
2022-10-09T04:46:07.134Z,88.48
2022-10-09T04:48:42.259Z,89.25
2022-10-09T04:51:10.269Z,89.75
2022-10-09T04:53:39.639Z,89.33
2022-10-09T04:56:10.759Z,89.08
2022-10-09T04:58:40.763Z,88.91
2022-10-09T05:01:12.547Z,88.86
2022-10-09T05:03:40.135Z,88.24
2022-10-09T05:06:10.249Z,88.37
2022-10-09T05:08:38.500Z,88.01
2022-10-09T05:11:08.603Z,87.83
2022-10-09T05:13:40.366Z,87.80
2022-10-09T05:16:10.734Z,87.96
2022-10-09T05:18:45.940Z,87.81
2022-10-09T05:21:14.290Z,87.94
2022-10-09T05:23:42.474Z,88.03
2022-10-09T05:26:14.215Z,88.06
2022-10-09T05:28:42.895Z,88.09
2022-10-09T05:31:17.965Z,88.40
2022-10-09T05:33:47.199Z,88.50
2022-10-09T05:36:15.794Z,88.21
2022-10-09T05:38:43.284Z,88.25
2022-10-09T05:41:13.696Z,88.13
2022-10-09T05:43:45.928Z,88.10
2022-10-09T05:49:07.459Z,87.67
2022-10-09T05:51:37.884Z,87.73
2022-10-09T05:54:07.036Z,87.64
2022-10-09T05:56:42.195Z,87.39
2022-10-09T05:59:14.984Z,87.63
2022-10-09T06:01:45.011Z,87.07
2022-10-09T06:04:19.101Z,86.87
2022-10-09T06:06:49.759Z,87.17
2022-10-09T06:09:20.050Z,86.69
2022-10-09T06:11:48.645Z,86.85
2022-10-09T06:14:15.721Z,86.19
2022-10-09T06:16:47.905Z,86.28
2022-10-09T06:19:20.409Z,85.99
2022-10-09T06:21:50.641Z,85.18
2022-10-09T06:24:28.233Z,84.50
2022-10-09T06:27:09.193Z,84.18
2022-10-09T06:29:50.386Z,83.88
2022-10-09T06:32:30.936Z,83.21
2022-10-09T06:34:58.212Z,83.00
2022-10-09T06:37:25.747Z,82.98
2022-10-09T06:40:00.187Z,82.80
2022-10-09T06:42:28.389Z,82.79
2022-10-09T06:44:59.524Z,81.99
2022-10-09T06:47:31.420Z,81.57
2022-10-09T06:50:02.466Z,81.15
2022-10-09T06:52:32.986Z,80.37
2022-10-09T06:55:00.655Z,79.93
2022-10-09T06:57:28.269Z,80.27
2022-10-09T06:59:55.461Z,79.87
2022-10-09T07:02:25.103Z,79.70
2022-10-09T07:04:57.512Z,79.95
2022-10-09T07:07:32.222Z,79.49
2022-10-09T07:10:06.392Z,79.00
2022-10-09T07:12:38.101Z,78.79
2022-10-09T07:15:07.011Z,78.54
2022-10-09T07:17:37.400Z,78.36
2022-10-09T07:20:13.291Z,78.37
2022-10-09T07:22:48.359Z,78.55
2022-10-09T07:25:17.424Z,77.91
2022-10-09T07:27:51.930Z,77.74
2022-10-09T07:30:24.812Z,76.54
2022-10-09T07:32:55.983Z,75.66
2022-10-09T07:35:32.550Z,75.21
2022-10-09T07:38:03.057Z,74.57
2022-10-09T07:40:30.646Z,74.37
2022-10-09T07:43:00.574Z,74.20
2022-10-09T07:45:35.157Z,74.77
2022-10-09T07:48:02.968Z,74.80
2022-10-09T07:55:58.320Z,72.24
2022-10-09T07:58:25.694Z,71.70
2022-10-09T08:00:55.781Z,70.19
2022-10-09T08:03:25.077Z,68.42
2022-10-09T08:05:59.098Z,68.75
2022-10-09T08:08:29.669Z,68.94
2022-10-09T08:10:57.790Z,66.25
2022-10-09T08:13:25.055Z,65.31
2022-10-09T08:15:57.850Z,66.12
2022-10-09T08:18:29.331Z,65.67
2022-10-09T08:21:04.619Z,64.75
2022-10-09T08:26:16.389Z,60.68
2022-10-09T08:31:27.056Z,57.82
2022-10-09T08:33:56.504Z,55.37
2022-10-09T08:36:24.005Z,51.30
2022-10-09T08:38:52.328Z,46.78
2022-10-09T08:41:38.807Z,45.21
2022-10-09T08:44:24.318Z,43.07
2022-10-09T08:47:15.550Z,44.38
2022-10-09T08:50:20.790Z,42.58
2022-10-09T08:52:58.489Z,40.14
2022-10-09T08:55:55.072Z,38.32
2022-10-09T08:58:40.086Z,37.66
2022-10-09T09:01:22.273Z,37.44
2022-10-09T09:03:50.098Z,35.06
2022-10-09T09:06:22.496Z,33.50
2022-10-09T09:09:27.597Z,35.84
2022-10-09T09:12:05.376Z,34.14
2022-10-09T09:15:16.208Z,35.19
2022-10-09T09:17:59.871Z,34.73
2022-10-09T09:20:39.701Z,33.79
2022-10-09T09:23:15.600Z,33.69
2022-10-09T09:25:52.209Z,34.86
2022-10-09T09:28:29.683Z,33.15
2022-10-09T09:31:02.231Z,32.18
2022-10-09T09:33:50.754Z,31.48
2022-10-09T09:36:25.632Z,30.27
2022-10-09T09:42:47.085Z,28.87
2022-10-09T09:48:40.023Z,29.62
2022-10-09T09:51:28.490Z,29.78
2022-10-09T09:54:00.362Z,31.46
2022-10-09T09:59:36.262Z,35.55
2022-10-09T10:02:20.302Z,35.78
2022-10-09T10:04:56.525Z,37.00
2022-10-09T10:07:35.513Z,37.62
2022-10-09T10:10:13.726Z,37.81
2022-10-09T10:12:52.399Z,38.50
2022-10-09T10:15:19.842Z,38.05
2022-10-09T10:17:50.062Z,38.80
2022-10-09T10:20:21.269Z,39.80
2022-10-09T10:22:54.498Z,40.81
2022-10-09T10:25:28.103Z,41.64
2022-10-09T10:28:06.186Z,41.62
2022-10-09T10:30:35.998Z,41.48
2022-10-09T10:33:27.701Z,41.92
2022-10-09T10:35:58.531Z,42.38
2022-10-09T10:38:40.023Z,42.44
2022-10-09T10:41:26.242Z,41.68
2022-10-09T10:44:02.142Z,41.02
2022-10-09T10:46:49.689Z,40.95
2022-10-09T10:49:22.139Z,41.59
2022-10-09T10:52:23.323Z,41.33
2022-10-09T10:55:20.517Z,40.80
2022-10-09T10:58:12.340Z,41.44
2022-10-09T11:01:05.574Z,41.48
2022-10-09T11:04:12.488Z,40.35
2022-10-09T11:07:01.473Z,40.47
2022-10-09T11:09:44.018Z,40.61
2022-10-09T11:12:46.787Z,40.12
2022-10-09T11:15:48.922Z,40.07
2022-10-09T11:18:53.777Z,39.50
2022-10-09T11:21:33.355Z,39.28
2022-10-09T11:24:27.304Z,39.88
2022-10-09T11:27:10.886Z,40.37
2022-10-09T11:29:47.617Z,39.79
2022-10-09T11:32:22.948Z,39.93
2022-10-09T11:35:25.428Z,39.59
2022-10-09T11:38:24.318Z,38.82
2022-10-09T11:40:54.600Z,38.14
2022-10-09T11:43:28.637Z,38.88
2022-10-09T11:46:30.892Z,38.93
2022-10-09T11:52:39.438Z,38.99
2022-10-09T11:55:40.739Z,38.88
2022-10-09T11:58:23.366Z,39.55
2022-10-09T12:00:56.040Z,40.21
2022-10-09T12:04:06.106Z,40.52
2022-10-09T12:06:46.920Z,40.02
2022-10-09T12:09:36.669Z,41.17
2022-10-09T12:12:22.134Z,41.32
2022-10-09T12:14:51.972Z,41.53
2022-10-09T12:17:22.286Z,41.52
2022-10-09T12:20:01.061Z,41.17
2022-10-09T12:23:07.373Z,41.42
2022-10-09T12:25:43.788Z,41.93
2022-10-09T12:28:20.525Z,42.34
2022-10-09T12:30:49.222Z,42.14
2022-10-09T12:33:56.398Z,43.21
2022-10-09T12:36:38.449Z,43.35
2022-10-09T12:42:24.309Z,43.73
2022-10-09T12:44:54.218Z,43.92
2022-10-09T12:47:28.903Z,44.15
2022-10-09T12:50:25.381Z,44.18
2022-10-09T12:53:00.314Z,43.82
2022-10-09T12:55:41.867Z,44.04
2022-10-09T12:58:20.204Z,44.35
2022-10-09T13:00:50.219Z,44.74
2022-10-09T13:03:23.734Z,44.62
2022-10-09T13:05:51.662Z,43.89
2022-10-09T13:08:34.098Z,44.27
2022-10-09T13:11:10.371Z,44.17
2022-10-09T13:13:43.918Z,44.14
2022-10-09T13:16:10.981Z,44.37
2022-10-09T13:18:38.534Z,44.67
2022-10-09T13:21:29.136Z,44.58
2022-10-09T13:24:13.593Z,44.78
2022-10-09T13:26:43.232Z,45.04
2022-10-09T13:29:13.753Z,44.59
2022-10-09T13:31:43.991Z,44.93
2022-10-09T13:34:14.787Z,45.14
2022-10-09T13:36:42.065Z,44.89
2022-10-09T13:39:15.362Z,45.51
2022-10-09T13:41:46.379Z,45.30
2022-10-09T13:44:13.488Z,45.47
2022-10-09T13:46:41.655Z,45.30
2022-10-09T13:51:57.952Z,45.13
2022-10-09T13:54:25.720Z,45.44
2022-10-09T13:57:02.814Z,45.53
2022-10-09T14:02:28.567Z,45.52
2022-10-09T14:04:57.201Z,46.11
2022-10-09T14:07:24.195Z,45.85
2022-10-09T14:09:52.021Z,45.79
2022-10-09T14:12:19.426Z,45.87
2022-10-09T14:14:46.492Z,46.57
2022-10-09T14:17:13.563Z,46.64
2022-10-09T14:19:41.114Z,46.68
2022-10-09T14:22:08.085Z,47.55
2022-10-09T14:24:35.977Z,47.68
2022-10-09T14:27:03.730Z,47.85
2022-10-09T14:29:30.949Z,48.39
2022-10-09T14:31:58.045Z,48.14
2022-10-09T14:34:25.424Z,48.65
2022-10-09T14:36:52.715Z,48.89
2022-10-09T14:39:20.139Z,49.08
2022-10-09T14:41:47.259Z,49.09
2022-10-09T14:44:15.305Z,49.21
2022-10-09T14:46:42.602Z,49.77
2022-10-09T14:49:10.962Z,49.75
2022-10-09T14:51:39.733Z,50.07
2022-10-09T14:54:08.214Z,50.38
2022-10-09T14:56:37.029Z,50.67
2022-10-09T14:59:06.305Z,51.34
2022-10-09T15:01:35.037Z,51.30
2022-10-09T15:04:03.784Z,52.17
2022-10-09T15:06:31.028Z,52.74
2022-10-09T15:09:04.638Z,53.07
2022-10-09T15:11:34.346Z,54.52
2022-10-09T15:14:05.232Z,55.59
2022-10-09T15:16:33.346Z,56.85
2022-10-09T15:19:01.090Z,57.75
2022-10-09T15:21:31.957Z,58.01
2022-10-09T15:24:00.994Z,58.95
2022-10-09T15:26:30.008Z,59.86
2022-10-09T15:28:58.107Z,60.00
2022-10-09T15:31:32.403Z,60.49
2022-10-09T15:34:18.491Z,60.81
2022-10-09T15:36:47.516Z,61.24
2022-10-09T15:39:15.340Z,61.03
2022-10-09T15:44:42.922Z,61.67
2022-10-09T15:47:13.601Z,61.48
2022-10-09T15:58:26.228Z,60.21
2022-10-09T16:00:53.894Z,60.19
2022-10-09T16:03:37.134Z,60.32
2022-10-09T16:06:14.829Z,60.80
2022-10-09T16:08:43.001Z,60.89
2022-10-09T16:11:11.244Z,61.03
2022-10-09T16:13:40.933Z,60.87
2022-10-09T16:16:15.913Z,61.68
2022-10-09T16:18:46.778Z,61.53
2022-10-09T16:21:23.469Z,61.78
2022-10-09T16:23:55.861Z,61.81
2022-10-09T16:26:27.715Z,62.16
2022-10-09T16:31:46.627Z,62.94
2022-10-09T16:34:20.429Z,63.25
2022-10-09T16:36:47.611Z,63.45
2022-10-09T16:39:15.077Z,63.41
2022-10-09T16:41:45.554Z,63.51
2022-10-09T16:44:45.511Z,63.67
2022-10-09T16:47:14.595Z,64.46
2022-10-09T16:49:41.846Z,64.32
2022-10-09T16:52:31.878Z,64.83
2022-10-09T16:55:03.765Z,64.83
2022-10-09T16:57:30.955Z,64.98
2022-10-09T16:59:58.543Z,65.10
2022-10-09T17:02:27.191Z,65.56
2022-10-09T17:04:54.661Z,65.92
2022-10-09T17:07:23.980Z,66.01
2022-10-09T17:09:52.918Z,66.29
2022-10-09T17:12:20.565Z,66.15
2022-10-09T17:17:32.842Z,66.91
2022-10-09T17:20:02.853Z,67.28
2022-10-09T17:22:34.784Z,67.21
2022-10-09T17:25:02.149Z,67.44
2022-10-09T17:27:29.635Z,67.28
2022-10-09T17:32:54.749Z,67.72
2022-10-09T17:35:21.911Z,67.82
2022-10-09T17:38:02.410Z,68.02
2022-10-09T17:40:39.923Z,68.01
2022-10-09T17:43:10.734Z,67.93
2022-10-09T17:45:43.132Z,67.57
2022-10-09T17:48:13.968Z,67.78
2022-10-09T17:50:42.664Z,67.89
2022-10-09T17:53:17.740Z,67.91
2022-10-09T17:55:47.670Z,67.58
2022-10-09T17:58:15.888Z,67.58
2022-10-09T18:01:09.726Z,67.13
2022-10-09T18:03:38.423Z,67.50
2022-10-09T18:06:08.124Z,67.18
2022-10-09T18:08:36.377Z,67.06
2022-10-09T18:13:53.123Z,67.27
2022-10-09T18:16:25.360Z,67.19
2022-10-09T18:18:52.548Z,67.37
2022-10-09T18:21:19.927Z,66.82
2022-10-09T18:23:50.545Z,67.19
2022-10-09T18:26:40.982Z,67.08
2022-10-09T18:29:11.578Z,67.08
2022-10-09T18:31:46.821Z,67.56
2022-10-09T18:34:18.290Z,67.37
2022-10-09T18:36:45.409Z,67.09
2022-10-09T18:42:06.464Z,67.19
2022-10-09T18:44:41.363Z,66.73
2022-10-09T18:47:14.671Z,67.05
2022-10-09T18:49:45.737Z,66.71
2022-10-09T18:52:21.359Z,66.76
2022-10-09T18:54:54.051Z,66.69
2022-10-09T18:57:23.252Z,66.54
2022-10-09T18:59:53.561Z,66.23
2022-10-09T19:05:08.385Z,66.09
2022-10-09T19:07:35.576Z,66.54
2022-10-09T19:10:04.751Z,66.21
2022-10-09T19:12:32.357Z,66.47
2022-10-09T19:15:30.720Z,66.32
2022-10-09T19:17:58.245Z,66.03
2022-10-09T19:20:29.191Z,66.34
2022-10-09T19:22:59.368Z,66.63
2022-10-09T19:25:26.870Z,65.99
2022-10-09T19:28:20.158Z,66.31
2022-10-09T19:30:50.244Z,66.10
2022-10-09T19:33:19.137Z,66.00
2022-10-09T19:36:05.370Z,66.08
2022-10-09T19:38:37.634Z,66.26
2022-10-09T19:41:07.228Z,66.47
2022-10-09T19:43:35.697Z,66.21
2022-10-09T19:46:10.218Z,66.46
2022-10-09T19:48:52.608Z,66.80
2022-10-09T19:51:28.184Z,66.83
2022-10-09T19:53:55.571Z,67.16
2022-10-09T19:56:26.309Z,67.58
2022-10-09T19:58:54.452Z,68.18
2022-10-09T20:01:24.421Z,68.01
2022-10-09T20:04:00.643Z,68.45
2022-10-09T20:06:29.211Z,68.47
2022-10-09T20:08:57.141Z,68.51
2022-10-09T20:11:26.488Z,68.89
2022-10-09T20:13:56.617Z,68.63
2022-10-09T20:16:25.232Z,68.85
2022-10-09T20:18:54.727Z,69.49
2022-10-09T20:21:22.056Z,69.11
2022-10-09T20:23:49.147Z,69.15
2022-10-09T20:26:18.729Z,69.78
2022-10-09T20:28:47.175Z,69.45
2022-10-09T20:31:17.950Z,69.92
2022-10-09T20:33:46.657Z,69.86
2022-10-09T20:36:35.534Z,69.94
2022-10-09T20:39:06.755Z,69.81
2022-10-09T20:41:34.428Z,69.91
2022-10-09T20:44:02.937Z,69.95
2022-10-09T20:46:32.164Z,69.71
2022-10-09T20:48:59.753Z,69.89
2022-10-09T20:51:27.027Z,69.94
2022-10-09T20:54:02.954Z,69.56
2022-10-09T20:56:33.013Z,69.57
2022-10-09T20:59:02.288Z,69.73
2022-10-09T21:01:30.791Z,68.90
2022-10-09T21:03:59.326Z,69.13
2022-10-09T21:06:26.884Z,69.24
2022-10-09T21:08:53.911Z,69.22
2022-10-09T21:11:21.902Z,69.36
2022-10-09T21:13:49.947Z,69.05
2022-10-09T21:16:23.981Z,69.42
2022-10-09T21:19:01.947Z,69.28
2022-10-09T21:21:34.191Z,69.17
2022-10-09T21:24:01.312Z,68.74
2022-10-09T21:26:30.600Z,68.90
2022-10-09T21:28:59.846Z,68.55
2022-10-09T21:31:30.182Z,68.41
2022-10-09T21:34:00.047Z,68.67
2022-10-09T21:36:27.245Z,68.59
2022-10-09T21:38:54.722Z,68.19
2022-10-09T21:41:23.157Z,68.33
2022-10-09T21:43:52.459Z,67.93
2022-10-09T21:46:22.056Z,68.10
2022-10-09T21:48:49.342Z,68.11
2022-10-09T21:51:17.731Z,67.94
2022-10-09T21:53:45.371Z,68.11
2022-10-09T21:56:12.844Z,68.02
2022-10-09T21:58:41.432Z,68.13
2022-10-09T22:01:11.346Z,67.96
2022-10-09T22:03:38.704Z,67.84
2022-10-09T22:06:09.198Z,67.68
2022-10-09T22:08:36.912Z,67.61
2022-10-09T22:11:07.909Z,67.66
2022-10-09T22:13:35.453Z,67.98
2022-10-09T22:16:12.288Z,67.95
2022-10-09T22:18:39.707Z,67.74
2022-10-09T22:21:15.826Z,67.76
2022-10-09T22:23:44.722Z,67.68
2022-10-09T22:26:16.193Z,67.30
2022-10-09T22:28:43.801Z,67.79
2022-10-09T22:31:20.103Z,68.10
2022-10-09T22:33:58.644Z,68.10
2022-10-09T22:36:30.318Z,67.87
2022-10-09T22:38:59.934Z,67.82
2022-10-09T22:41:29.227Z,67.98
2022-10-09T22:43:58.122Z,67.96
2022-10-09T22:46:29.108Z,67.87
2022-10-09T22:48:56.247Z,68.26
2022-10-09T22:51:26.280Z,68.23
2022-10-09T22:53:54.959Z,68.23
2022-10-09T22:56:28.017Z,68.10
2022-10-09T22:58:56.385Z,68.51
2022-10-09T23:01:33.163Z,68.25
2022-10-09T23:04:04.863Z,68.75
2022-10-09T23:06:33.584Z,68.50
2022-10-09T23:09:01.047Z,68.46
2022-10-09T23:11:30.171Z,68.51
2022-10-09T23:13:59.282Z,68.51
2022-10-09T23:16:28.352Z,68.79
2022-10-09T23:18:57.913Z,68.76
2022-10-09T23:21:28.488Z,68.99
2022-10-09T23:23:55.897Z,69.13
2022-10-09T23:26:26.671Z,69.29
2022-10-09T23:28:59.992Z,69.21
2022-10-09T23:31:28.301Z,69.66
2022-10-09T23:33:57.131Z,70.01
2022-10-09T23:36:27.046Z,69.63
2022-10-09T23:38:55.427Z,70.14
2022-10-09T23:41:24.563Z,70.06
2022-10-09T23:43:53.171Z,70.78
2022-10-09T23:46:34.593Z,70.58
2022-10-09T23:49:04.648Z,71.04
2022-10-09T23:51:31.963Z,70.81
2022-10-09T23:53:59.893Z,70.97
2022-10-09T23:56:30.327Z,71.17
2022-10-09T23:59:00.198Z,71.20
